sensor_id;sensor_type;location;lat;lon;timestamp;temperature;humidity
24148;DHT22;12309;51.450;-2.624;2023-03-13T00:01:01;12.90;99.90
24148;DHT22;12309;51.450;-2.624;2023-03-13T00:03:27;12.90;99.90
24148;DHT22;12309;51.450;-2.624;2023-03-13T00:05:57;13.50;99.90
24148;DHT22;12309;51.450;-2.624;2023-03-13T00:08:24;13.00;99.90
24148;DHT22;12309;51.450;-2.624;2023-03-13T00:13:16;12.90;99.90
24148;DHT22;12309;51.450;-2.624;2023-03-13T00:15:42;13.00;99.90
24148;DHT22;12309;51.450;-2.624;2023-03-13T00:18:07;12.90;99.90
24148;DHT22;12309;51.450;-2.624;2023-03-13T00:20:33;12.80;99.90
24148;DHT22;12309;51.450;-2.624;2023-03-13T00:22:59;12.80;99.90
24148;DHT22;12309;51.450;-2.624;2023-03-13T00:25:24;12.80;99.90
24148;DHT22;12309;51.450;-2.624;2023-03-13T00:27:50;12.90;99.90
24148;DHT22;12309;51.450;-2.624;2023-03-13T00:30:16;13.00;99.90
24148;DHT22;12309;51.450;-2.624;2023-03-13T00:32:42;12.90;99.90
24148;DHT22;12309;51.450;-2.624;2023-03-13T00:35:08;12.90;99.90
24148;DHT22;12309;51.450;-2.624;2023-03-13T00:37:34;12.80;99.90
24148;DHT22;12309;51.450;-2.624;2023-03-13T00:40:00;12.60;99.90
24148;DHT22;12309;51.450;-2.624;2023-03-13T00:44:51;12.80;99.90
24148;DHT22;12309;51.450;-2.624;2023-03-13T00:47:17;12.80;99.90
24148;DHT22;12309;51.450;-2.624;2023-03-13T00:49:42;12.80;99.90
24148;DHT22;12309;51.450;-2.624;2023-03-13T00:52:08;12.70;99.90
24148;DHT22;12309;51.450;-2.624;2023-03-13T00:56:59;12.80;99.90
24148;DHT22;12309;51.450;-2.624;2023-03-13T00:59:25;12.70;99.90
24148;DHT22;12309;51.450;-2.624;2023-03-13T01:01:51;12.70;99.90
24148;DHT22;12309;51.450;-2.624;2023-03-13T01:04:16;12.90;99.90
24148;DHT22;12309;51.450;-2.624;2023-03-13T01:09:11;12.90;99.90
24148;DHT22;12309;51.450;-2.624;2023-03-13T01:11:40;12.90;99.90
24148;DHT22;12309;51.450;-2.624;2023-03-13T01:14:11;13.00;99.90
24148;DHT22;12309;51.450;-2.624;2023-03-13T01:16:38;13.00;99.90
24148;DHT22;12309;51.450;-2.624;2023-03-13T01:19:07;12.80;99.90
24148;DHT22;12309;51.450;-2.624;2023-03-13T01:21:33;12.80;99.90
24148;DHT22;12309;51.450;-2.624;2023-03-13T01:23:59;12.80;99.90
24148;DHT22;12309;51.450;-2.624;2023-03-13T01:26:25;13.10;99.90
24148;DHT22;12309;51.450;-2.624;2023-03-13T01:28:51;13.10;99.90
24148;DHT22;12309;51.450;-2.624;2023-03-13T01:31:19;13.10;99.90
24148;DHT22;12309;51.450;-2.624;2023-03-13T01:33:47;13.10;99.90
24148;DHT22;12309;51.450;-2.624;2023-03-13T01:36:15;13.00;99.90
24148;DHT22;12309;51.450;-2.624;2023-03-13T01:38:40;13.00;99.90
24148;DHT22;12309;51.450;-2.624;2023-03-13T01:41:07;13.10;99.90
24148;DHT22;12309;51.450;-2.624;2023-03-13T01:43:35;13.00;99.90
24148;DHT22;12309;51.450;-2.624;2023-03-13T01:54:14;13.10;99.90
24148;DHT22;12309;51.450;-2.624;2023-03-13T01:56:44;13.10;99.90
24148;DHT22;12309;51.450;-2.624;2023-03-13T01:59:16;15.40;99.90
24148;DHT22;12309;51.450;-2.624;2023-03-13T02:01:44;13.40;99.90
24148;DHT22;12309;51.450;-2.624;2023-03-13T02:04:11;13.00;99.90
24148;DHT22;12309;51.450;-2.624;2023-03-13T02:06:40;13.20;99.90
24148;DHT22;12309;51.450;-2.624;2023-03-13T02:09:11;13.30;99.90
24148;DHT22;12309;51.450;-2.624;2023-03-13T02:12:12;13.30;99.90
24148;DHT22;12309;51.450;-2.624;2023-03-13T02:14:41;13.40;99.90
24148;DHT22;12309;51.450;-2.624;2023-03-13T02:19:43;13.00;99.90
24148;DHT22;12309;51.450;-2.624;2023-03-13T02:27:44;13.40;99.90
24148;DHT22;12309;51.450;-2.624;2023-03-13T02:30:11;13.50;99.90
24148;DHT22;12309;51.450;-2.624;2023-03-13T02:32:38;13.20;99.90
24148;DHT22;12309;51.450;-2.624;2023-03-13T02:35:07;13.10;99.90
24148;DHT22;12309;51.450;-2.624;2023-03-13T02:37:35;13.30;99.90
24148;DHT22;12309;51.450;-2.624;2023-03-13T02:40:05;13.20;99.90
24148;DHT22;12309;51.450;-2.624;2023-03-13T02:42:33;13.50;99.90
24148;DHT22;12309;51.450;-2.624;2023-03-13T02:45:00;13.30;99.90
24148;DHT22;12309;51.450;-2.624;2023-03-13T02:47:26;13.30;99.90
24148;DHT22;12309;51.450;-2.624;2023-03-13T02:52:25;13.10;99.90
24148;DHT22;12309;51.450;-2.624;2023-03-13T02:54:57;13.20;99.90
24148;DHT22;12309;51.450;-2.624;2023-03-13T02:57:23;13.20;99.90
24148;DHT22;12309;51.450;-2.624;2023-03-13T02:59:49;13.30;99.90
24148;DHT22;12309;51.450;-2.624;2023-03-13T03:02:14;13.10;99.90
24148;DHT22;12309;51.450;-2.624;2023-03-13T03:04:40;12.60;99.90
24148;DHT22;12309;51.450;-2.624;2023-03-13T03:07:05;13.10;99.90
24148;DHT22;12309;51.450;-2.624;2023-03-13T03:09:31;13.20;99.90
24148;DHT22;12309;51.450;-2.624;2023-03-13T03:11:57;13.10;99.90
24148;DHT22;12309;51.450;-2.624;2023-03-13T03:14:22;13.10;99.90
24148;DHT22;12309;51.450;-2.624;2023-03-13T03:16:48;13.10;99.90
24148;DHT22;12309;51.450;-2.624;2023-03-13T03:19:14;13.20;99.90
24148;DHT22;12309;51.450;-2.624;2023-03-13T03:21:39;13.20;99.90
24148;DHT22;12309;51.450;-2.624;2023-03-13T03:24:05;13.20;99.90
24148;DHT22;12309;51.450;-2.624;2023-03-13T03:26:31;13.30;99.90
24148;DHT22;12309;51.450;-2.624;2023-03-13T03:28:57;13.40;99.90
24148;DHT22;12309;51.450;-2.624;2023-03-13T03:31:22;13.00;99.90
24148;DHT22;12309;51.450;-2.624;2023-03-13T03:33:48;13.40;99.90
24148;DHT22;12309;51.450;-2.624;2023-03-13T03:36:17;13.30;99.90
24148;DHT22;12309;51.450;-2.624;2023-03-13T03:38:43;13.30;99.90
24148;DHT22;12309;51.450;-2.624;2023-03-13T03:41:11;13.30;99.90
24148;DHT22;12309;51.450;-2.624;2023-03-13T03:43:36;13.20;99.90
24148;DHT22;12309;51.450;-2.624;2023-03-13T03:46:02;13.20;99.90
24148;DHT22;12309;51.450;-2.624;2023-03-13T03:48:28;13.20;99.90
24148;DHT22;12309;51.450;-2.624;2023-03-13T03:50:54;13.10;99.90
24148;DHT22;12309;51.450;-2.624;2023-03-13T03:53:20;13.20;99.90
24148;DHT22;12309;51.450;-2.624;2023-03-13T03:55:46;13.10;99.90
24148;DHT22;12309;51.450;-2.624;2023-03-13T03:58:11;12.60;99.90
24148;DHT22;12309;51.450;-2.624;2023-03-13T04:00:37;12.90;99.90
24148;DHT22;12309;51.450;-2.624;2023-03-13T04:03:03;12.90;99.90
24148;DHT22;12309;51.450;-2.624;2023-03-13T04:05:28;13.00;99.90
24148;DHT22;12309;51.450;-2.624;2023-03-13T04:07:54;12.80;99.90
24148;DHT22;12309;51.450;-2.624;2023-03-13T04:12:46;13.00;99.90
24148;DHT22;12309;51.450;-2.624;2023-03-13T04:15:12;13.00;99.90
24148;DHT22;12309;51.450;-2.624;2023-03-13T04:17:37;15.70;99.90
24148;DHT22;12309;51.450;-2.624;2023-03-13T04:20:03;12.90;99.90
24148;DHT22;12309;51.450;-2.624;2023-03-13T04:22:30;12.90;99.90
24148;DHT22;12309;51.450;-2.624;2023-03-13T04:24:55;15.40;99.90
24148;DHT22;12309;51.450;-2.624;2023-03-13T04:27:21;13.30;99.90
24148;DHT22;12309;51.450;-2.624;2023-03-13T04:29:46;13.00;99.90
24148;DHT22;12309;51.450;-2.624;2023-03-13T04:32:12;13.10;99.90
24148;DHT22;12309;51.450;-2.624;2023-03-13T04:34:38;12.90;99.90
24148;DHT22;12309;51.450;-2.624;2023-03-13T04:37:03;13.30;99.90
24148;DHT22;12309;51.450;-2.624;2023-03-13T04:39:29;13.00;99.90
24148;DHT22;12309;51.450;-2.624;2023-03-13T04:41:55;13.00;99.90
24148;DHT22;12309;51.450;-2.624;2023-03-13T04:44:21;13.00;99.90
24148;DHT22;12309;51.450;-2.624;2023-03-13T04:46:47;13.00;99.90
24148;DHT22;12309;51.450;-2.624;2023-03-13T04:49:14;12.70;99.90
24148;DHT22;12309;51.450;-2.624;2023-03-13T04:51:41;13.20;99.90
24148;DHT22;12309;51.450;-2.624;2023-03-13T04:54:07;13.40;99.90
24148;DHT22;12309;51.450;-2.624;2023-03-13T04:56:33;13.00;99.90
24148;DHT22;12309;51.450;-2.624;2023-03-13T04:58:58;13.30;99.90
24148;DHT22;12309;51.450;-2.624;2023-03-13T05:01:24;12.70;99.90
24148;DHT22;12309;51.450;-2.624;2023-03-13T05:03:49;13.30;99.90
24148;DHT22;12309;51.450;-2.624;2023-03-13T05:06:15;13.30;99.90
24148;DHT22;12309;51.450;-2.624;2023-03-13T05:08:41;13.30;99.90
24148;DHT22;12309;51.450;-2.624;2023-03-13T05:11:06;13.20;99.90
24148;DHT22;12309;51.450;-2.624;2023-03-13T05:13:32;13.30;99.90
24148;DHT22;12309;51.450;-2.624;2023-03-13T05:15:58;13.20;99.90
24148;DHT22;12309;51.450;-2.624;2023-03-13T05:18:24;13.80;99.90
24148;DHT22;12309;51.450;-2.624;2023-03-13T05:20:49;13.10;99.90
24148;DHT22;12309;51.450;-2.624;2023-03-13T05:23:15;13.20;99.90
24148;DHT22;12309;51.450;-2.624;2023-03-13T05:25:41;13.00;99.90
24148;DHT22;12309;51.450;-2.624;2023-03-13T05:28:06;13.00;99.90
24148;DHT22;12309;51.450;-2.624;2023-03-13T05:30:32;12.90;99.90
24148;DHT22;12309;51.450;-2.624;2023-03-13T05:32:58;13.00;99.90
24148;DHT22;12309;51.450;-2.624;2023-03-13T05:35:23;12.90;99.90
24148;DHT22;12309;51.450;-2.624;2023-03-13T05:37:49;13.10;99.90
24148;DHT22;12309;51.450;-2.624;2023-03-13T05:40:15;13.00;99.90
24148;DHT22;12309;51.450;-2.624;2023-03-13T05:42:41;13.00;99.90
24148;DHT22;12309;51.450;-2.624;2023-03-13T05:45:07;12.90;99.90
24148;DHT22;12309;51.450;-2.624;2023-03-13T05:47:34;12.90;99.90
24148;DHT22;12309;51.450;-2.624;2023-03-13T05:50:00;12.80;99.90
24148;DHT22;12309;51.450;-2.624;2023-03-13T05:52:26;12.60;99.90
24148;DHT22;12309;51.450;-2.624;2023-03-13T05:54:52;12.70;99.90
24148;DHT22;12309;51.450;-2.624;2023-03-13T05:57:18;13.10;99.90
24148;DHT22;12309;51.450;-2.624;2023-03-13T05:59:43;12.60;99.90
24148;DHT22;12309;51.450;-2.624;2023-03-13T06:02:09;12.60;99.90
24148;DHT22;12309;51.450;-2.624;2023-03-13T06:04:35;12.70;99.90
24148;DHT22;12309;51.450;-2.624;2023-03-13T06:07:01;12.50;99.90
24148;DHT22;12309;51.450;-2.624;2023-03-13T06:09:26;12.50;99.90
24148;DHT22;12309;51.450;-2.624;2023-03-13T06:11:52;12.50;99.90
24148;DHT22;12309;51.450;-2.624;2023-03-13T06:14:17;12.60;99.90
24148;DHT22;12309;51.450;-2.624;2023-03-13T06:16:43;12.60;99.90
24148;DHT22;12309;51.450;-2.624;2023-03-13T06:19:09;12.70;99.90
24148;DHT22;12309;51.450;-2.624;2023-03-13T06:21:36;12.40;99.90
24148;DHT22;12309;51.450;-2.624;2023-03-13T06:24:01;12.30;99.90
24148;DHT22;12309;51.450;-2.624;2023-03-13T06:26:27;12.30;99.90
24148;DHT22;12309;51.450;-2.624;2023-03-13T06:28:53;12.10;99.90
24148;DHT22;12309;51.450;-2.624;2023-03-13T06:31:19;11.90;99.90
24148;DHT22;12309;51.450;-2.624;2023-03-13T06:33:44;11.80;99.90
24148;DHT22;12309;51.450;-2.624;2023-03-13T06:36:10;12.10;99.90
24148;DHT22;12309;51.450;-2.624;2023-03-13T06:38:36;12.00;99.90
24148;DHT22;12309;51.450;-2.624;2023-03-13T06:41:01;12.10;99.90
24148;DHT22;12309;51.450;-2.624;2023-03-13T06:43:27;12.10;99.90
24148;DHT22;12309;51.450;-2.624;2023-03-13T06:45:53;12.20;99.90
24148;DHT22;12309;51.450;-2.624;2023-03-13T06:48:18;12.20;99.90
24148;DHT22;12309;51.450;-2.624;2023-03-13T06:50:45;12.30;99.90
24148;DHT22;12309;51.450;-2.624;2023-03-13T06:53:19;12.10;99.90
24148;DHT22;12309;51.450;-2.624;2023-03-13T06:55:45;12.10;99.90
24148;DHT22;12309;51.450;-2.624;2023-03-13T07:00:37;12.00;99.90
24148;DHT22;12309;51.450;-2.624;2023-03-13T07:03:05;12.40;99.90
24148;DHT22;12309;51.450;-2.624;2023-03-13T07:05:31;11.90;99.90
24148;DHT22;12309;51.450;-2.624;2023-03-13T07:07:56;11.90;99.90
24148;DHT22;12309;51.450;-2.624;2023-03-13T07:10:22;12.10;99.90
24148;DHT22;12309;51.450;-2.624;2023-03-13T07:12:48;12.30;99.90
24148;DHT22;12309;51.450;-2.624;2023-03-13T07:15:13;12.00;99.90
24148;DHT22;12309;51.450;-2.624;2023-03-13T07:20:05;11.80;99.90
24148;DHT22;12309;51.450;-2.624;2023-03-13T07:22:34;11.90;99.90
24148;DHT22;12309;51.450;-2.624;2023-03-13T07:24:59;12.00;99.90
24148;DHT22;12309;51.450;-2.624;2023-03-13T07:27:25;11.80;99.90
24148;DHT22;12309;51.450;-2.624;2023-03-13T07:29:51;12.20;99.90
24148;DHT22;12309;51.450;-2.624;2023-03-13T07:32:17;12.30;99.90
24148;DHT22;12309;51.450;-2.624;2023-03-13T07:34:42;12.20;99.90
24148;DHT22;12309;51.450;-2.624;2023-03-13T07:37:13;12.30;99.90
24148;DHT22;12309;51.450;-2.624;2023-03-13T07:42:05;12.30;99.90
24148;DHT22;12309;51.450;-2.624;2023-03-13T07:44:31;13.80;99.90
24148;DHT22;12309;51.450;-2.624;2023-03-13T07:47:01;12.50;99.90
24148;DHT22;12309;51.450;-2.624;2023-03-13T07:49:26;12.50;99.90
24148;DHT22;12309;51.450;-2.624;2023-03-13T07:51:52;12.80;99.90
24148;DHT22;12309;51.450;-2.624;2023-03-13T07:54:17;12.60;99.90
24148;DHT22;12309;51.450;-2.624;2023-03-13T07:56:43;12.30;99.90
24148;DHT22;12309;51.450;-2.624;2023-03-13T07:59:09;12.70;99.90
24148;DHT22;12309;51.450;-2.624;2023-03-13T08:01:35;12.60;99.90
24148;DHT22;12309;51.450;-2.624;2023-03-13T08:04:01;12.70;99.90
24148;DHT22;12309;51.450;-2.624;2023-03-13T08:06:29;13.00;99.90
24148;DHT22;12309;51.450;-2.624;2023-03-13T08:08:58;13.00;99.90
24148;DHT22;12309;51.450;-2.624;2023-03-13T08:11:25;13.30;99.90
24148;DHT22;12309;51.450;-2.624;2023-03-13T08:13:53;12.90;99.90
24148;DHT22;12309;51.450;-2.624;2023-03-13T08:16:23;13.00;99.90
24148;DHT22;12309;51.450;-2.624;2023-03-13T08:18:52;12.80;99.90
24148;DHT22;12309;51.450;-2.624;2023-03-13T08:21:21;12.80;99.90
24148;DHT22;12309;51.450;-2.624;2023-03-13T08:26:15;11.80;99.90
24148;DHT22;12309;51.450;-2.624;2023-03-13T08:28:43;12.50;99.90
24148;DHT22;12309;51.450;-2.624;2023-03-13T08:33:36;12.70;99.90
24148;DHT22;12309;51.450;-2.624;2023-03-13T08:38:38;12.60;99.90
24148;DHT22;12309;51.450;-2.624;2023-03-13T08:41:06;12.70;99.90
24148;DHT22;12309;51.450;-2.624;2023-03-13T08:43:32;12.80;99.90
24148;DHT22;12309;51.450;-2.624;2023-03-13T08:45:57;13.00;99.90
24148;DHT22;12309;51.450;-2.624;2023-03-13T08:48:23;13.10;99.90
24148;DHT22;12309;51.450;-2.624;2023-03-13T08:51:09;13.10;99.90
24148;DHT22;12309;51.450;-2.624;2023-03-13T08:53:36;13.10;99.90
24148;DHT22;12309;51.450;-2.624;2023-03-13T08:56:03;13.00;99.90
24148;DHT22;12309;51.450;-2.624;2023-03-13T08:58:29;13.00;99.90
24148;DHT22;12309;51.450;-2.624;2023-03-13T09:01:00;12.80;99.90
24148;DHT22;12309;51.450;-2.624;2023-03-13T09:03:26;11.60;99.90
24148;DHT22;12309;51.450;-2.624;2023-03-13T09:05:52;12.00;99.90
24148;DHT22;12309;51.450;-2.624;2023-03-13T09:08:18;11.80;99.90
24148;DHT22;12309;51.450;-2.624;2023-03-13T09:10:43;11.70;99.90
24148;DHT22;12309;51.450;-2.624;2023-03-13T09:13:09;11.70;99.90
24148;DHT22;12309;51.450;-2.624;2023-03-13T09:15:34;11.80;99.90
24148;DHT22;12309;51.450;-2.624;2023-03-13T09:18:00;11.80;99.90
24148;DHT22;12309;51.450;-2.624;2023-03-13T09:20:26;11.80;99.90
24148;DHT22;12309;51.450;-2.624;2023-03-13T09:22:51;11.80;99.90
24148;DHT22;12309;51.450;-2.624;2023-03-13T09:25:17;11.80;99.90
24148;DHT22;12309;51.450;-2.624;2023-03-13T09:27:42;11.90;99.90
24148;DHT22;12309;51.450;-2.624;2023-03-13T09:30:08;11.70;99.90
24148;DHT22;12309;51.450;-2.624;2023-03-13T09:32:34;11.60;99.90
24148;DHT22;12309;51.450;-2.624;2023-03-13T09:35:00;11.80;99.90
24148;DHT22;12309;51.450;-2.624;2023-03-13T09:37:25;11.80;99.90
24148;DHT22;12309;51.450;-2.624;2023-03-13T09:39:51;12.10;99.90
24148;DHT22;12309;51.450;-2.624;2023-03-13T09:44:54;12.10;99.90
24148;DHT22;12309;51.450;-2.624;2023-03-13T09:47:47;12.30;99.90
24148;DHT22;12309;51.450;-2.624;2023-03-13T09:50:22;12.50;99.90
24148;DHT22;12309;51.450;-2.624;2023-03-13T09:52:53;12.60;99.90
24148;DHT22;12309;51.450;-2.624;2023-03-13T09:55:23;12.70;99.90
24148;DHT22;12309;51.450;-2.624;2023-03-13T10:00:47;13.00;99.90
24148;DHT22;12309;51.450;-2.624;2023-03-13T10:03:32;13.20;99.90
24148;DHT22;12309;51.450;-2.624;2023-03-13T10:06:01;15.00;99.90
24148;DHT22;12309;51.450;-2.624;2023-03-13T10:08:33;13.50;99.90
24148;DHT22;12309;51.450;-2.624;2023-03-13T10:14:21;13.90;99.90
24148;DHT22;12309;51.450;-2.624;2023-03-13T10:19:42;14.70;99.90
24148;DHT22;12309;51.450;-2.624;2023-03-13T10:22:18;14.30;99.90
24148;DHT22;12309;51.450;-2.624;2023-03-13T10:27:18;14.40;99.90
24148;DHT22;12309;51.450;-2.624;2023-03-13T10:29:44;14.80;99.90
24148;DHT22;12309;51.450;-2.624;2023-03-13T10:32:14;15.70;99.90
24148;DHT22;12309;51.450;-2.624;2023-03-13T10:34:52;15.30;99.90
24148;DHT22;12309;51.450;-2.624;2023-03-13T10:37:24;15.90;99.90
24148;DHT22;12309;51.450;-2.624;2023-03-13T10:39:50;14.80;99.90
24148;DHT22;12309;51.450;-2.624;2023-03-13T10:42:25;14.20;99.90
24148;DHT22;12309;51.450;-2.624;2023-03-13T10:44:59;14.20;99.90
24148;DHT22;12309;51.450;-2.624;2023-03-13T10:47:25;13.60;99.90
24148;DHT22;12309;51.450;-2.624;2023-03-13T10:49:55;13.40;99.90
24148;DHT22;12309;51.450;-2.624;2023-03-13T10:52:46;13.30;99.90
24148;DHT22;12309;51.450;-2.624;2023-03-13T10:55:23;13.30;99.90
24148;DHT22;12309;51.450;-2.624;2023-03-13T10:58:00;13.40;99.90
24148;DHT22;12309;51.450;-2.624;2023-03-13T11:02:53;13.70;99.90
24148;DHT22;12309;51.450;-2.624;2023-03-13T11:05:28;13.60;99.90
24148;DHT22;12309;51.450;-2.624;2023-03-13T11:07:54;13.60;99.90
24148;DHT22;12309;51.450;-2.624;2023-03-13T11:10:28;13.40;99.90
24148;DHT22;12309;51.450;-2.624;2023-03-13T11:13:01;13.60;99.90
24148;DHT22;12309;51.450;-2.624;2023-03-13T11:15:48;13.70;99.90
24148;DHT22;12309;51.450;-2.624;2023-03-13T11:18:29;13.40;99.90
24148;DHT22;12309;51.450;-2.624;2023-03-13T11:20:58;13.50;99.90
24148;DHT22;12309;51.450;-2.624;2023-03-13T11:23:28;13.80;99.90
24148;DHT22;12309;51.450;-2.624;2023-03-13T11:29:04;13.80;99.90
24148;DHT22;12309;51.450;-2.624;2023-03-13T11:31:38;14.30;99.90
24148;DHT22;12309;51.450;-2.624;2023-03-13T11:37:02;13.70;99.90
24148;DHT22;12309;51.450;-2.624;2023-03-13T11:39:42;13.80;99.90
24148;DHT22;12309;51.450;-2.624;2023-03-13T11:53:21;16.60;99.90
24148;DHT22;12309;51.450;-2.624;2023-03-13T12:01:29;18.10;99.90
24148;DHT22;12309;51.450;-2.624;2023-03-13T12:04:04;18.90;99.90
24148;DHT22;12309;51.450;-2.624;2023-03-13T12:06:51;19.00;99.90
24148;DHT22;12309;51.450;-2.624;2023-03-13T12:09:36;19.30;99.90
24148;DHT22;12309;51.450;-2.624;2023-03-13T12:14:44;19.20;99.90
24148;DHT22;12309;51.450;-2.624;2023-03-13T12:17:12;19.50;99.90
24148;DHT22;12309;51.450;-2.624;2023-03-13T12:19:41;20.20;99.90
24148;DHT22;12309;51.450;-2.624;2023-03-13T12:22:18;20.00;99.90
24148;DHT22;12309;51.450;-2.624;2023-03-13T12:24:59;19.50;99.90
24148;DHT22;12309;51.450;-2.624;2023-03-13T12:27:32;19.80;99.90
24148;DHT22;12309;51.450;-2.624;2023-03-13T12:32:34;18.80;99.90
24148;DHT22;12309;51.450;-2.624;2023-03-13T12:35:17;18.20;99.90
24148;DHT22;12309;51.450;-2.624;2023-03-13T12:43:16;15.70;99.90
24148;DHT22;12309;51.450;-2.624;2023-03-13T12:54:42;13.60;99.90
24148;DHT22;12309;51.450;-2.624;2023-03-13T12:57:23;13.00;99.90
24148;DHT22;12309;51.450;-2.624;2023-03-13T12:59:58;12.20;99.90
24148;DHT22;12309;51.450;-2.624;2023-03-13T13:02:31;12.40;99.90
24148;DHT22;12309;51.450;-2.624;2023-03-13T13:05:01;12.90;99.90
24148;DHT22;12309;51.450;-2.624;2023-03-13T13:07:29;12.90;99.90
24148;DHT22;12309;51.450;-2.624;2023-03-13T13:10:24;12.70;99.90
24148;DHT22;12309;51.450;-2.624;2023-03-13T13:15:46;12.50;99.90
24148;DHT22;12309;51.450;-2.624;2023-03-13T13:18:32;12.70;99.90
24148;DHT22;12309;51.450;-2.624;2023-03-13T13:23:31;12.40;99.90
24148;DHT22;12309;51.450;-2.624;2023-03-13T13:45:01;12.90;99.90
24148;DHT22;12309;51.450;-2.624;2023-03-13T13:47:29;13.30;99.90
24148;DHT22;12309;51.450;-2.624;2023-03-13T13:49:59;12.70;99.90
24148;DHT22;12309;51.450;-2.624;2023-03-13T13:52:37;12.40;99.90
24148;DHT22;12309;51.450;-2.624;2023-03-13T13:58:10;12.20;99.90
24148;DHT22;12309;51.450;-2.624;2023-03-13T14:00:58;12.30;99.90
24148;DHT22;12309;51.450;-2.624;2023-03-13T14:03:27;11.90;99.90
24148;DHT22;12309;51.450;-2.624;2023-03-13T14:06:38;12.00;99.90
24148;DHT22;12309;51.450;-2.624;2023-03-13T14:08:45;12.20;99.90
24148;DHT22;12309;51.450;-2.624;2023-03-13T14:13:41;12.30;99.90
24148;DHT22;12309;51.450;-2.624;2023-03-13T14:16:25;12.60;99.90
24148;DHT22;12309;51.450;-2.624;2023-03-13T14:18:51;12.20;99.90
24148;DHT22;12309;51.450;-2.624;2023-03-13T14:21:22;11.80;99.90
24148;DHT22;12309;51.450;-2.624;2023-03-13T14:23:48;12.00;99.90
24148;DHT22;12309;51.450;-2.624;2023-03-13T14:26:27;14.30;99.90
24148;DHT22;12309;51.450;-2.624;2023-03-13T14:29:01;13.40;99.90
24148;DHT22;12309;51.450;-2.624;2023-03-13T14:33:58;14.80;99.90
24148;DHT22;12309;51.450;-2.624;2023-03-13T14:36:25;15.00;99.90
24148;DHT22;12309;51.450;-2.624;2023-03-13T14:38:56;15.70;99.90
24148;DHT22;12309;51.450;-2.624;2023-03-13T14:41:36;16.00;99.90
24148;DHT22;12309;51.450;-2.624;2023-03-13T14:44:09;16.30;99.90
24148;DHT22;12309;51.450;-2.624;2023-03-13T14:46:39;15.80;99.90
24148;DHT22;12309;51.450;-2.624;2023-03-13T14:49:14;15.80;99.90
24148;DHT22;12309;51.450;-2.624;2023-03-13T14:51:41;15.70;99.90
24148;DHT22;12309;51.450;-2.624;2023-03-13T14:54:35;15.10;99.90
24148;DHT22;12309;51.450;-2.624;2023-03-13T14:59:35;14.10;99.90
24148;DHT22;12309;51.450;-2.624;2023-03-13T15:04:55;13.80;99.90
24148;DHT22;12309;51.450;-2.624;2023-03-13T15:07:26;13.90;99.90
24148;DHT22;12309;51.450;-2.624;2023-03-13T15:09:52;14.40;99.90
24148;DHT22;12309;51.450;-2.624;2023-03-13T15:12:21;14.30;99.90
24148;DHT22;12309;51.450;-2.624;2023-03-13T15:14:49;14.20;99.90
24148;DHT22;12309;51.450;-2.624;2023-03-13T15:17:23;14.50;99.90
24148;DHT22;12309;51.450;-2.624;2023-03-13T15:19:52;14.20;99.90
24148;DHT22;12309;51.450;-2.624;2023-03-13T15:22:23;14.00;99.90
24148;DHT22;12309;51.450;-2.624;2023-03-13T15:24:50;13.80;99.90
24148;DHT22;12309;51.450;-2.624;2023-03-13T15:27:21;14.00;99.90
24148;DHT22;12309;51.450;-2.624;2023-03-13T15:29:47;14.10;99.90
24148;DHT22;12309;51.450;-2.624;2023-03-13T15:32:18;14.30;99.90
24148;DHT22;12309;51.450;-2.624;2023-03-13T15:34:46;14.40;99.90
24148;DHT22;12309;51.450;-2.624;2023-03-13T15:37:12;14.20;99.90
24148;DHT22;12309;51.450;-2.624;2023-03-13T15:39:38;13.70;99.90
24148;DHT22;12309;51.450;-2.624;2023-03-13T15:42:04;13.30;99.90
24148;DHT22;12309;51.450;-2.624;2023-03-13T15:44:30;13.10;99.90
24148;DHT22;12309;51.450;-2.624;2023-03-13T15:49:21;12.70;99.90
24148;DHT22;12309;51.450;-2.624;2023-03-13T15:51:47;13.00;99.90
24148;DHT22;12309;51.450;-2.624;2023-03-13T15:54:13;12.90;99.90
24148;DHT22;12309;51.450;-2.624;2023-03-13T15:56:39;12.90;99.90
24148;DHT22;12309;51.450;-2.624;2023-03-13T15:59:15;12.80;99.90
24148;DHT22;12309;51.450;-2.624;2023-03-13T16:01:44;12.70;99.90
24148;DHT22;12309;51.450;-2.624;2023-03-13T16:04:10;12.50;99.90
24148;DHT22;12309;51.450;-2.624;2023-03-13T16:06:36;12.30;99.90
24148;DHT22;12309;51.450;-2.624;2023-03-13T16:09:04;12.50;99.90
24148;DHT22;12309;51.450;-2.624;2023-03-13T16:11:31;12.40;99.90
24148;DHT22;12309;51.450;-2.624;2023-03-13T16:13:57;12.60;99.90
24148;DHT22;12309;51.450;-2.624;2023-03-13T16:16:28;12.70;99.90
24148;DHT22;12309;51.450;-2.624;2023-03-13T16:18:54;12.80;99.90
24148;DHT22;12309;51.450;-2.624;2023-03-13T16:21:26;12.30;99.90
24148;DHT22;12309;51.450;-2.624;2023-03-13T16:26:20;12.10;99.90
24148;DHT22;12309;51.450;-2.624;2023-03-13T16:28:46;12.10;99.90
24148;DHT22;12309;51.450;-2.624;2023-03-13T16:31:19;12.10;99.90
24148;DHT22;12309;51.450;-2.624;2023-03-13T16:33:46;12.10;99.90
24148;DHT22;12309;51.450;-2.624;2023-03-13T16:36:20;12.10;99.90
24148;DHT22;12309;51.450;-2.624;2023-03-13T16:38:47;11.80;99.90
24148;DHT22;12309;51.450;-2.624;2023-03-13T16:41:17;11.90;99.90
24148;DHT22;12309;51.450;-2.624;2023-03-13T16:43:43;11.70;99.90
24148;DHT22;12309;51.450;-2.624;2023-03-13T16:46:18;11.90;99.90
24148;DHT22;12309;51.450;-2.624;2023-03-13T16:48:44;11.60;99.90
24148;DHT22;12309;51.450;-2.624;2023-03-13T16:51:21;11.20;99.90
24148;DHT22;12309;51.450;-2.624;2023-03-13T16:53:49;11.60;99.90
24148;DHT22;12309;51.450;-2.624;2023-03-13T16:58:43;11.40;99.90
24148;DHT22;12309;51.450;-2.624;2023-03-13T17:01:09;11.70;99.90
24148;DHT22;12309;51.450;-2.624;2023-03-13T17:03:35;11.80;99.90
24148;DHT22;12309;51.450;-2.624;2023-03-13T17:06:00;11.60;99.90
24148;DHT22;12309;51.450;-2.624;2023-03-13T17:10:52;11.30;99.90
24148;DHT22;12309;51.450;-2.624;2023-03-13T17:15:47;11.40;99.90
24148;DHT22;12309;51.450;-2.624;2023-03-13T17:18:13;11.90;99.90
24148;DHT22;12309;51.450;-2.624;2023-03-13T17:23:04;11.40;99.90
24148;DHT22;12309;51.450;-2.624;2023-03-13T17:25:30;11.60;99.90
24148;DHT22;12309;51.450;-2.624;2023-03-13T17:27:56;11.70;99.90
24148;DHT22;12309;51.450;-2.624;2023-03-13T17:30:27;11.60;99.90
24148;DHT22;12309;51.450;-2.624;2023-03-13T17:32:54;11.60;99.90
24148;DHT22;12309;51.450;-2.624;2023-03-13T17:35:20;11.60;99.90
24148;DHT22;12309;51.450;-2.624;2023-03-13T17:37:47;11.60;99.90
24148;DHT22;12309;51.450;-2.624;2023-03-13T17:40:19;11.50;99.90
24148;DHT22;12309;51.450;-2.624;2023-03-13T17:42:45;11.50;99.90
24148;DHT22;12309;51.450;-2.624;2023-03-13T17:45:11;11.50;99.90
24148;DHT22;12309;51.450;-2.624;2023-03-13T17:47:37;11.60;99.90
24148;DHT22;12309;51.450;-2.624;2023-03-13T17:50:13;11.50;99.90
24148;DHT22;12309;51.450;-2.624;2023-03-13T17:55:07;11.50;99.90
24148;DHT22;12309;51.450;-2.624;2023-03-13T17:59:58;11.30;99.90
24148;DHT22;12309;51.450;-2.624;2023-03-13T18:02:24;11.30;99.90
24148;DHT22;12309;51.450;-2.624;2023-03-13T18:04:50;11.20;99.90